Time;durP1;ratioP1;P1;durP2;ratioP2;P2;SDS_P1;SDS_P2;PMS_P1;PMS_P2;Temp;Humidity;BMP_temperature;BMP_pressure;BME280_temperature;BME280_humidity;BME280_pressure;Samples;Min_cycle;Max_cycle;Signal;HPM_P1;HPM_P2
2023/06/21 00:00:12;;;;;;;3.87;2.40;;;;;;;;;;4967697;28;20568;-73
2023/06/21 00:02:42;;;;;;;3.17;1.87;;;;;;;;;;4962245;28;20481;-72
2023/06/21 00:05:12;;;;;;;10.33;3.10;;;;;;;;;;4965143;28;20450;-73
2023/06/21 00:07:40;;;;;;;6.33;3.00;;;;;;;;;;4954504;29;20615;-74
2023/06/21 00:10:08;;;;;;;3.97;2.07;;;;;;;;;;4952352;28;21068;-73
2023/06/21 00:12:36;;;;;;;5.70;2.50;;;;;;;;;;4951320;29;20875;-72
2023/06/21 00:15:08;;;;;;;9.40;3.10;;;;;;;;;;4953734;29;20462;-72
2023/06/21 00:17:36;;;;;;;8.73;2.87;;;;;;;;;;4955648;29;20469;-73
2023/06/21 00:20:05;;;;;;;9.50;2.80;;;;;;;;;;4954747;29;20493;-73
2023/06/21 00:22:35;;;;;;;5.60;2.10;;;;;;;;;;4953852;29;20515;-74
2023/06/21 00:25:03;;;;;;;6.80;3.07;;;;;;;;;;4954159;29;20735;-73
2023/06/21 00:30:10;;;;;;;5.60;2.20;;;;;;;;;;1438063;26;20484;-84
2023/06/21 00:32:39;;;;;;;5.37;2.00;;;;;;;;;;4983265;28;20534;-84
2023/06/21 00:35:06;;;;;;;6.07;2.27;;;;;;;;;;4985158;28;20517;-83
2023/06/21 00:37:38;;;;;;;6.27;2.43;;;;;;;;;;4987522;28;20513;-82
2023/06/21 00:40:11;;;;;;;4.00;2.00;;;;;;;;;;4987960;28;20477;-82
2023/06/21 00:42:39;;;;;;;4.30;2.10;;;;;;;;;;4987895;28;20525;-83
2023/06/21 00:45:08;;;;;;;4.10;1.93;;;;;;;;;;4988478;28;20462;-83
2023/06/21 00:47:40;;;;;;;4.97;2.30;;;;;;;;;;4989569;28;20473;-83
2023/06/21 00:50:08;;;;;;;4.90;2.87;;;;;;;;;;4988032;28;20506;-82
2023/06/21 00:52:39;;;;;;;4.33;2.17;;;;;;;;;;4991962;28;20448;-81
2023/06/21 00:55:12;;;;;;;8.63;3.07;;;;;;;;;;4987777;28;20434;-82
2023/06/21 00:57:44;;;;;;;3.67;2.13;;;;;;;;;;4987929;28;20445;-83
2023/06/21 01:00:20;;;;;;;6.17;2.53;;;;;;;;;;4985772;28;20503;-83
2023/06/21 01:02:48;;;;;;;3.77;2.50;;;;;;;;;;4985742;28;20820;-81
2023/06/21 01:05:16;;;;;;;12.60;4.30;;;;;;;;;;4984586;28;20528;-82
2023/06/21 01:07:47;;;;;;;8.23;2.57;;;;;;;;;;4989463;28;20450;-82
2023/06/21 01:13:06;;;;;;;5.00;2.27;;;;;;;;;;4988674;28;20538;-84
2023/06/21 01:15:41;;;;;;;3.80;2.20;;;;;;;;;;4993578;23;20797;-73
2023/06/21 01:18:13;;;;;;;5.47;2.10;;;;;;;;;;4962575;28;20481;-74
2023/06/21 01:20:48;;;;;;;4.43;2.20;;;;;;;;;;4965673;28;20951;-73
2023/06/21 01:23:39;;;;;;;5.23;3.43;;;;;;;;;;4967186;28;21006;-73
2023/06/21 01:31:57;;;;;;;6.40;4.20;;;;;;;;;;4989590;28;20500;-85
2023/06/21 01:34:25;;;;;;;5.13;3.10;;;;;;;;;;5002131;28;20705;-83
2023/06/21 01:36:53;;;;;;;7.90;3.27;;;;;;;;;;5006644;28;20456;-83
2023/06/21 01:39:22;;;;;;;7.27;3.03;;;;;;;;;;5014274;28;20615;-81
2023/06/21 01:41:50;;;;;;;6.13;3.00;;;;;;;;;;5011714;28;20503;-83
2023/06/21 01:44:19;;;;;;;5.40;2.97;;;;;;;;;;5012109;28;20500;-82
2023/06/21 01:46:51;;;;;;;4.43;2.93;;;;;;;;;;5015523;28;20467;-82
2023/06/21 01:49:19;;;;;;;4.87;2.77;;;;;;;;;;5016259;28;20452;-82
2023/06/21 01:57:28;;;;;;;5.97;2.80;;;;;;;;;;5897138;23;21036;-73
2023/06/21 01:59:59;;;;;;;5.67;3.10;;;;;;;;;;4975532;28;20649;-72
2023/06/21 02:02:27;;;;;;;6.27;3.20;;;;;;;;;;4974366;28;20454;-73
2023/06/21 02:04:55;;;;;;;6.77;2.83;;;;;;;;;;4981649;28;20679;-72
2023/06/21 02:07:23;;;;;;;4.00;2.67;;;;;;;;;;4976172;28;20767;-73
2023/06/21 02:09:51;;;;;;;5.23;3.00;;;;;;;;;;4971418;28;20711;-72
2023/06/21 02:12:19;;;;;;;6.03;3.20;;;;;;;;;;4970771;28;20670;-72
2023/06/21 02:14:47;;;;;;;5.00;2.50;;;;;;;;;;4971925;28;20535;-72
2023/06/21 02:17:17;;;;;;;6.70;4.07;;;;;;;;;;4972553;28;20461;-74
2023/06/21 02:19:44;;;;;;;5.90;3.93;;;;;;;;;;4971096;28;20477;-73
2023/06/21 02:22:15;;;;;;;8.03;4.23;;;;;;;;;;4971539;28;20766;-73
2023/06/21 02:24:43;;;;;;;5.03;4.07;;;;;;;;;;4971594;28;20469;-74
2023/06/21 02:27:10;;;;;;;8.60;5.80;;;;;;;;;;4990200;23;20504;-82
2023/06/21 02:29:38;;;;;;;5.10;4.47;;;;;;;;;;4985851;28;20449;-83
2023/06/21 02:32:06;;;;;;;9.97;6.50;;;;;;;;;;4984900;28;20434;-83
2023/06/21 02:34:35;;;;;;;7.27;6.03;;;;;;;;;;4984572;28;20679;-84
2023/06/21 02:37:03;;;;;;;6.17;5.23;;;;;;;;;;4983656;28;20683;-84
2023/06/21 02:39:31;;;;;;;9.23;6.20;;;;;;;;;;4983784;28;20453;-84
2023/06/21 02:42:01;;;;;;;7.80;6.33;;;;;;;;;;4982958;28;20465;-85
2023/06/21 02:44:29;;;;;;;6.50;5.37;;;;;;;;;;4984004;28;20845;-85
2023/06/21 02:46:56;;;;;;;7.60;4.80;;;;;;;;;;4985464;28;20461;-83
2023/06/21 02:49:27;;;;;;;7.87;5.57;;;;;;;;;;4987482;28;20457;-85
2023/06/21 02:51:58;;;;;;;10.30;4.80;;;;;;;;;;4986249;28;20457;-83
2023/06/21 02:54:26;;;;;;;7.10;5.03;;;;;;;;;;4986490;28;20456;-83
2023/06/21 02:56:53;;;;;;;6.97;4.00;;;;;;;;;;4985300;28;20457;-83
2023/06/21 02:59:20;;;;;;;7.67;5.60;;;;;;;;;;4985900;28;20830;-82
2023/06/21 03:01:48;;;;;;;8.43;6.30;;;;;;;;;;4983562;28;20491;-81
2023/06/21 03:04:16;;;;;;;6.47;5.73;;;;;;;;;;4987213;28;20525;-82
2023/06/21 03:06:44;;;;;;;8.20;7.27;;;;;;;;;;4987366;28;20642;-83
2023/06/21 03:12:17;;;;;;;7.17;6.00;;;;;;;;;;4992833;28;20456;-82
2023/06/21 03:14:45;;;;;;;6.93;5.93;;;;;;;;;;4980917;23;20854;-72
2023/06/21 03:17:13;;;;;;;8.30;6.13;;;;;;;;;;4935616;29;20467;-74
2023/06/21 03:19:41;;;;;;;7.10;5.90;;;;;;;;;;4937764;29;20455;-74
2023/06/21 03:22:16;;;;;;;8.07;6.10;;;;;;;;;;4938645;29;20459;-73
2023/06/21 03:24:44;;;;;;;8.50;7.10;;;;;;;;;;4936641;29;20906;-73
2023/06/21 03:29:49;;;;;;;8.20;7.30;;;;;;;;;;4996084;23;20536;-82
2023/06/21 03:32:17;;;;;;;9.27;8.30;;;;;;;;;;4984922;28;20867;-82
2023/06/21 03:34:44;;;;;;;10.87;8.47;;;;;;;;;;4984289;28;20445;-83
2023/06/21 03:37:12;;;;;;;9.60;8.17;;;;;;;;;;4986658;28;20512;-83
2023/06/21 03:39:39;;;;;;;13.50;8.70;;;;;;;;;;4987653;28;20468;-83
2023/06/21 03:42:07;;;;;;;13.33;9.80;;;;;;;;;;4987291;28;20486;-84
2023/06/21 03:44:38;;;;;;;12.53;9.13;;;;;;;;;;4991044;28;20466;-84
2023/06/21 03:47:07;;;;;;;10.73;8.73;;;;;;;;;;4991181;28;20468;-83
2023/06/21 03:49:36;;;;;;;10.87;9.67;;;;;;;;;;4989750;28;20449;-82
2023/06/21 03:52:04;;;;;;;12.67;10.00;;;;;;;;;;4989068;28;20468;-82
2023/06/21 03:54:32;;;;;;;10.23;9.13;;;;;;;;;;4989040;28;20440;-83
2023/06/21 03:56:59;;;;;;;12.93;10.70;;;;;;;;;;4990591;28;20457;-83
2023/06/21 03:59:29;;;;;;;11.00;9.37;;;;;;;;;;4988732;28;20461;-84
2023/06/21 04:01:58;;;;;;;13.40;10.00;;;;;;;;;;4986882;28;20496;-82
2023/06/21 04:04:32;;;;;;;11.80;9.30;;;;;;;;;;4987056;28;20449;-83
2023/06/21 04:07:00;;;;;;;13.03;10.13;;;;;;;;;;4988661;28;20456;-84
2023/06/21 04:12:32;;;;;;;12.40;9.70;;;;;;;;;;4984314;28;20461;-83
2023/06/21 04:15:01;;;;;;;15.27;11.10;;;;;;;;;;5002643;23;20492;-74
2023/06/21 04:17:29;;;;;;;14.30;10.23;;;;;;;;;;4981171;28;20492;-72
2023/06/21 04:19:58;;;;;;;16.07;11.13;;;;;;;;;;4976156;28;20471;-74
2023/06/21 04:22:26;;;;;;;12.37;10.40;;;;;;;;;;4971755;28;20453;-73
2023/06/21 04:24:54;;;;;;;12.10;10.70;;;;;;;;;;4972120;28;21003;-73
2023/06/21 04:29:57;;;;;;;13.90;10.90;;;;;;;;;;1474901;26;20796;-83
2023/06/21 04:32:25;;;;;;;13.90;11.07;;;;;;;;;;4987804;28;20469;-84
2023/06/21 04:34:53;;;;;;;11.57;10.37;;;;;;;;;;4991665;28;20519;-83
2023/06/21 04:37:25;;;;;;;14.60;12.97;;;;;;;;;;4986952;28;20453;-83
2023/06/21 04:39:57;;;;;;;14.70;12.77;;;;;;;;;;4992000;28;20488;-84
2023/06/21 04:42:25;;;;;;;14.80;11.97;;;;;;;;;;4989866;28;20506;-84
2023/06/21 04:44:54;;;;;;;13.47;12.13;;;;;;;;;;4987003;28;20541;-84
2023/06/21 04:47:24;;;;;;;13.70;11.77;;;;;;;;;;4991931;28;20464;-83
2023/06/21 04:49:53;;;;;;;15.53;13.30;;;;;;;;;;4987000;28;20464;-83
2023/06/21 04:52:22;;;;;;;13.37;12.10;;;;;;;;;;4986068;28;20619;-84
2023/06/21 04:54:52;;;;;;;15.63;14.20;;;;;;;;;;4985354;28;20625;-81
2023/06/21 04:57:19;;;;;;;14.30;12.80;;;;;;;;;;4987074;28;20489;-83
2023/06/21 04:59:48;;;;;;;13.83;12.50;;;;;;;;;;4985540;28;20485;-82
2023/06/21 05:02:16;;;;;;;18.83;13.47;;;;;;;;;;4982614;28;20596;-83
2023/06/21 05:04:43;;;;;;;14.97;12.97;;;;;;;;;;4984239;28;20434;-84
2023/06/21 05:07:11;;;;;;;14.90;12.83;;;;;;;;;;4985299;28;20827;-83
2023/06/21 05:12:45;;;;;;;17.10;13.67;;;;;;;;;;4981450;28;20503;-82
2023/06/21 05:15:13;;;;;;;13.33;11.90;;;;;;;;;;4998590;23;20508;-73
2023/06/21 05:17:41;;;;;;;14.10;12.60;;;;;;;;;;4972627;28;20492;-73
2023/06/21 05:20:10;;;;;;;14.23;12.30;;;;;;;;;;4968094;28;20749;-73
2023/06/21 05:22:38;;;;;;;14.43;12.93;;;;;;;;;;4967533;28;20894;-72
2023/06/21 05:25:14;;;;;;;14.30;12.90;;;;;;;;;;4966500;28;20564;-72
2023/06/21 05:27:42;;;;;;;13.43;12.10;;;;;;;;;;4991120;23;20548;-83
2023/06/21 05:30:11;;;;;;;14.20;12.70;;;;;;;;;;4982718;28;20488;-83
2023/06/21 05:32:39;;;;;;;14.70;13.27;;;;;;;;;;4981313;28;20665;-82
2023/06/21 05:35:07;;;;;;;17.13;14.07;;;;;;;;;;4985213;28;20417;-81
2023/06/21 05:37:44;;;;;;;14.17;12.67;;;;;;;;;;4984651;28;20488;-81
2023/06/21 05:40:12;;;;;;;12.23;10.93;;;;;;;;;;4983410;28;20476;-81
2023/06/21 05:42:39;;;;;;;13.00;11.70;;;;;;;;;;4982951;28;20569;-82
2023/06/21 05:45:10;;;;;;;12.50;10.73;;;;;;;;;;4983267;28;20488;-82
2023/06/21 05:47:39;;;;;;;12.73;11.43;;;;;;;;;;4982981;28;20460;-82
2023/06/21 05:50:08;;;;;;;14.60;13.20;;;;;;;;;;4988756;28;20682;-81
2023/06/21 05:52:39;;;;;;;16.83;12.13;;;;;;;;;;4983728;28;20441;-80
2023/06/21 05:55:10;;;;;;;15.37;12.20;;;;;;;;;;4981432;28;20529;-81
2023/06/21 05:57:40;;;;;;;15.53;13.93;;;;;;;;;;4980329;28;20476;-81
2023/06/21 06:00:12;;;;;;;18.43;15.87;;;;;;;;;;4979491;28;20461;-83
2023/06/21 06:02:47;;;;;;;17.53;14.90;;;;;;;;;;4977940;28;20493;-83
2023/06/21 06:05:20;;;;;;;16.43;14.70;;;;;;;;;;4980351;28;20449;-81
2023/06/21 06:07:48;;;;;;;18.43;16.47;;;;;;;;;;4978842;28;20469;-81
2023/06/21 06:12:57;;;;;;;19.00;17.10;;;;;;;;;;4980270;28;20476;-82
2023/06/21 06:15:29;;;;;;;20.87;17.93;;;;;;;;;;4981607;23;20575;-72
2023/06/21 06:18:01;;;;;;;28.43;21.57;;;;;;;;;;4910099;29;20468;-73
2023/06/21 06:20:30;;;;;;;20.07;17.97;;;;;;;;;;4909996;29;20467;-73
2023/06/21 06:22:58;;;;;;;20.40;17.80;;;;;;;;;;4911169;29;20559;-73
2023/06/21 06:25:35;;;;;;;19.47;17.47;;;;;;;;;;4913298;29;20444;-74
2023/06/21 06:28:25;;;;;;;20.73;18.53;;;;;;;;;;4973395;23;20520;-81
2023/06/21 06:30:53;;;;;;;22.27;18.90;;;;;;;;;;4976685;28;20668;-79
2023/06/21 06:33:29;;;;;;;18.27;16.37;;;;;;;;;;4983247;28;20524;-84
2023/06/21 06:35:57;;;;;;;17.73;15.90;;;;;;;;;;4982939;28;20502;-83
2023/06/21 06:38:24;;;;;;;23.37;18.00;;;;;;;;;;4982715;28;20453;-82
2023/06/21 06:40:52;;;;;;;15.40;13.83;;;;;;;;;;4984741;28;20554;-83
2023/06/21 06:43:20;;;;;;;16.50;14.77;;;;;;;;;;4984887;28;20477;-82
2023/06/21 06:45:47;;;;;;;17.30;15.33;;;;;;;;;;4983573;28;20468;-82
2023/06/21 06:48:14;;;;;;;17.30;15.50;;;;;;;;;;4986771;28;20468;-83
2023/06/21 06:50:43;;;;;;;16.33;14.20;;;;;;;;;;4982342;28;20473;-81
2023/06/21 06:53:13;;;;;;;17.00;15.00;;;;;;;;;;4984086;28;20445;-84
2023/06/21 06:55:41;;;;;;;16.10;14.37;;;;;;;;;;4985786;28;20458;-85
2023/06/21 06:58:08;;;;;;;16.37;14.63;;;;;;;;;;4985314;28;20464;-85
2023/06/21 07:00:37;;;;;;;15.93;14.23;;;;;;;;;;4989069;28;20450;-85
2023/06/21 07:03:06;;;;;;;16.87;15.07;;;;;;;;;;4986651;28;20461;-83
2023/06/21 07:05:36;;;;;;;16.63;14.40;;;;;;;;;;4984558;28;20469;-84
2023/06/21 07:13:15;;;;;;;14.57;13.00;;;;;;;;;;4996272;28;20892;-83
2023/06/21 07:16:09;;;;;;;16.80;13.90;;;;;;;;;;4985624;23;20488;-73
2023/06/21 07:18:38;;;;;;;16.40;14.10;;;;;;;;;;4968220;28;20457;-72
2023/06/21 07:21:09;;;;;;;15.13;13.67;;;;;;;;;;4960340;28;20494;-72
2023/06/21 07:23:45;;;;;;;19.20;13.37;;;;;;;;;;4966578;28;21200;-72
2023/06/21 07:31:41;;;;;;;15.40;13.83;;;;;;;;;;4318553;26;20538;-84
2023/06/21 07:34:08;;;;;;;17.33;15.63;;;;;;;;;;4988507;28;20461;-84
2023/06/21 07:36:36;;;;;;;16.30;14.70;;;;;;;;;;4992134;28;20537;-83
2023/06/21 07:39:06;;;;;;;15.97;14.47;;;;;;;;;;4992061;28;20464;-83
2023/06/21 07:41:34;;;;;;;16.83;14.87;;;;;;;;;;4989902;28;20492;-84
2023/06/21 07:44:02;;;;;;;20.23;15.43;;;;;;;;;;4990107;28;20924;-83
2023/06/21 07:46:31;;;;;;;15.40;13.37;;;;;;;;;;4992473;28;20516;-85
2023/06/21 07:48:59;;;;;;;16.00;14.43;;;;;;;;;;4993207;28;20468;-87
2023/06/21 07:51:27;;;;;;;16.90;15.30;;;;;;;;;;4993700;28;20461;-85
2023/06/21 07:53:59;;;;;;;14.40;13.00;;;;;;;;;;4988931;28;20517;-83
2023/06/21 07:56:41;;;;;;;13.83;12.40;;;;;;;;;;4989414;28;20489;-84
2023/06/21 07:59:10;;;;;;;14.27;12.77;;;;;;;;;;4988566;28;21209;-84
2023/06/21 08:01:41;;;;;;;15.07;13.47;;;;;;;;;;4980484;28;20494;-83
2023/06/21 08:04:25;;;;;;;13.70;12.30;;;;;;;;;;4983699;28;20470;-83
2023/06/21 08:06:53;;;;;;;14.53;12.80;;;;;;;;;;4973377;28;20470;-83
2023/06/21 08:15:20;;;;;;;14.60;13.17;;;;;;;;;;5004382;23;20505;-72
2023/06/21 08:17:58;;;;;;;11.53;10.40;;;;;;;;;;4975225;28;20210;-72
2023/06/21 08:20:28;;;;;;;11.57;10.47;;;;;;;;;;4972944;28;20470;-72
2023/06/21 08:22:59;;;;;;;14.60;13.20;;;;;;;;;;4974460;28;20489;-71
2023/06/21 08:25:28;;;;;;;15.77;14.17;;;;;;;;;;4973104;28;20463;-71
2023/06/21 08:27:59;;;;;;;15.17;13.67;;;;;;;;;;5004872;23;20515;-85
2023/06/21 08:30:27;;;;;;;15.53;13.90;;;;;;;;;;5013396;28;20452;-86
2023/06/21 08:32:57;;;;;;;15.00;13.60;;;;;;;;;;5012130;28;20480;-83
2023/06/21 08:35:30;;;;;;;14.10;12.80;;;;;;;;;;5006461;28;20551;-81
2023/06/21 08:38:10;;;;;;;15.10;13.70;;;;;;;;;;5006991;28;20452;-82
2023/06/21 08:40:38;;;;;;;15.67;14.07;;;;;;;;;;5010089;28;20564;-81
2023/06/21 08:43:06;;;;;;;15.10;13.70;;;;;;;;;;5007781;28;20872;-84
2023/06/21 08:45:33;;;;;;;16.70;13.40;;;;;;;;;;5006832;28;20456;-84
2023/06/21 08:48:02;;;;;;;14.40;13.00;;;;;;;;;;5007346;28;20457;-83
2023/06/21 08:50:31;;;;;;;13.00;11.60;;;;;;;;;;5011079;28;20457;-83
2023/06/21 08:53:00;;;;;;;13.63;12.33;;;;;;;;;;5008764;28;20500;-81
2023/06/21 08:55:30;;;;;;;13.80;12.43;;;;;;;;;;5008737;28;20460;-81
2023/06/21 08:58:02;;;;;;;12.17;11.07;;;;;;;;;;5008727;28;20452;-86
2023/06/21 09:00:37;;;;;;;12.57;11.33;;;;;;;;;;5009886;28;20503;-83
2023/06/21 09:03:11;;;;;;;13.40;12.07;;;;;;;;;;5009490;28;20488;-83
2023/06/21 09:05:44;;;;;;;14.00;12.50;;;;;;;;;;5008949;28;20475;-84
2023/06/21 09:16:25;;;;;;;15.00;13.40;;;;;;;;;;4718536;26;20221;-71
2023/06/21 09:19:16;;;;;;;14.30;12.90;;;;;;;;;;4973491;28;20492;-73
2023/06/21 09:21:56;;;;;;;14.57;12.90;;;;;;;;;;4952465;28;20889;-72
2023/06/21 09:24:32;;;;;;;15.40;13.77;;;;;;;;;;4967705;28;20446;-71
2023/06/21 10:29:09;;;;;;;12.40;11.20;;;;;;;;;;4736809;23;20539;31
2023/06/21 10:34:58;;;;;;;11.73;10.53;;;;;;;;;;4920262;29;20544;-73
2023/06/21 10:37:58;;;;;;;10.13;9.20;;;;;;;;;;4919999;29;20456;-73
2023/06/21 10:40:50;;;;;;;11.00;9.77;;;;;;;;;;4937812;29;20474;-72
2023/06/21 10:47:03;;;;;;;10.37;9.37;;;;;;;;;;4927046;29;20766;-72
2023/06/21 10:53:06;;;;;;;10.50;9.13;;;;;;;;;;4956191;28;20838;-73
2023/06/21 10:55:55;;;;;;;10.07;9.07;;;;;;;;;;4977594;28;20974;-73
2023/06/21 11:01:21;;;;;;;11.73;10.63;;;;;;;;;;4980215;28;20452;-73
2023/06/21 11:04:06;;;;;;;10.10;9.10;;;;;;;;;;4982849;28;20481;-74
2023/06/21 11:06:38;;;;;;;9.27;8.37;;;;;;;;;;4964430;29;20485;-74
2023/06/21 11:09:11;;;;;;;9.73;8.73;;;;;;;;;;4974438;28;20496;-71
2023/06/21 11:17:41;;;;;;;11.47;8.20;;;;;;;;;;4971597;28;20440;-73
2023/06/21 11:20:22;;;;;;;9.20;8.30;;;;;;;;;;4971383;28;20503;-72
2023/06/21 11:23:00;;;;;;;8.00;7.30;;;;;;;;;;4963933;28;20503;-73
2023/06/21 11:25:29;;;;;;;8.73;6.60;;;;;;;;;;4959560;28;20464;-72
2023/06/21 11:30:32;;;;;;;6.93;6.23;;;;;;;;;;5533723;23;20520;-80
2023/06/21 11:33:00;;;;;;;7.10;6.40;;;;;;;;;;4988960;28;20513;-81
2023/06/21 11:35:56;;;;;;;7.40;6.20;;;;;;;;;;5008463;28;20471;-81
2023/06/21 11:38:26;;;;;;;6.23;5.50;;;;;;;;;;5003522;28;20864;-81
2023/06/21 11:40:54;;;;;;;5.53;4.80;;;;;;;;;;5010644;28;20457;-79
2023/06/21 11:43:26;;;;;;;5.13;4.63;;;;;;;;;;5008201;28;20488;-81
2023/06/21 11:46:00;;;;;;;6.10;5.50;;;;;;;;;;5004673;28;20478;-82
2023/06/21 11:48:28;;;;;;;6.67;5.13;;;;;;;;;;5007561;28;20441;-82
2023/06/21 11:51:25;;;;;;;7.23;5.03;;;;;;;;;;5003256;28;20491;-80
2023/06/21 11:53:57;;;;;;;5.33;4.43;;;;;;;;;;4990274;28;20471;-78
2023/06/21 11:56:35;;;;;;;5.57;4.97;;;;;;;;;;4999945;28;20455;-78
2023/06/21 11:59:08;;;;;;;6.60;5.30;;;;;;;;;;5005263;28;20466;-82
2023/06/21 12:01:36;;;;;;;5.83;5.20;;;;;;;;;;4999182;28;20513;-78
2023/06/21 12:04:03;;;;;;;5.57;4.80;;;;;;;;;;5000840;28;20484;-80
2023/06/21 12:06:31;;;;;;;5.80;4.40;;;;;;;;;;4994588;28;20879;-79
2023/06/21 12:31:57;;;;;;;5.40;4.40;;;;;;;;;;4979287;28;20821;-73
2023/06/21 12:34:47;;;;;;;5.53;4.17;;;;;;;;;;4964536;28;20211;-74
2023/06/21 12:37:35;;;;;;;6.97;4.73;;;;;;;;;;4964843;28;20461;-74
2023/06/21 12:40:25;;;;;;;6.47;4.00;;;;;;;;;;4977321;28;20465;-76
2023/06/21 12:43:03;;;;;;;6.30;4.20;;;;;;;;;;4973778;28;20493;-75
2023/06/21 12:45:43;;;;;;;5.10;4.07;;;;;;;;;;4972903;28;20497;-74
2023/06/21 12:48:23;;;;;;;5.50;4.60;;;;;;;;;;4978223;28;20469;-74
2023/06/21 12:54:29;;;;;;;6.03;4.23;;;;;;;;;;4967165;28;21018;-74
2023/06/21 12:57:27;;;;;;;7.10;4.33;;;;;;;;;;4975132;28;20508;-73
2023/06/21 13:02:49;;;;;;;6.27;4.50;;;;;;;;;;4973516;28;20485;-73
2023/06/21 13:05:49;;;;;;;5.57;4.40;;;;;;;;;;4974699;28;20536;-72
2023/06/21 13:11:47;;;;;;;9.17;5.00;;;;;;;;;;4977859;28;20837;-74
2023/06/21 13:14:51;;;;;;;6.47;5.00;;;;;;;;;;4999111;28;20479;-74
2023/06/21 13:17:39;;;;;;;13.80;5.40;;;;;;;;;;5001240;28;20460;-74
2023/06/21 13:20:10;;;;;;;5.27;4.17;;;;;;;;;;4986625;28;20493;-74
2023/06/21 13:22:57;;;;;;;4.70;3.87;;;;;;;;;;4977546;28;20481;-74
2023/06/21 13:25:25;;;;;;;4.63;3.63;;;;;;;;;;4976464;28;20449;-73
2023/06/21 13:27:55;;;;;;;6.70;3.93;;;;;;;;;;4990949;23;20489;-83
2023/06/21 13:30:26;;;;;;;5.07;4.07;;;;;;;;;;4979306;28;20456;-81
2023/06/21 13:32:55;;;;;;;8.20;4.70;;;;;;;;;;4970544;29;20455;-83
2023/06/21 13:35:23;;;;;;;4.90;3.80;;;;;;;;;;4969502;29;20752;-81
2023/06/21 13:37:51;;;;;;;5.20;4.20;;;;;;;;;;4977260;28;20458;-79
2023/06/21 13:40:20;;;;;;;6.90;4.00;;;;;;;;;;4991259;28;20513;-82
2023/06/21 13:42:48;;;;;;;4.57;3.50;;;;;;;;;;4987250;28;20498;-80
2023/06/21 13:45:16;;;;;;;6.30;4.43;;;;;;;;;;4987134;28;20472;-79
2023/06/21 13:47:43;;;;;;;5.40;4.30;;;;;;;;;;4987024;28;20457;-80
2023/06/21 13:50:16;;;;;;;5.60;4.20;;;;;;;;;;4987370;28;20467;-79
2023/06/21 13:52:45;;;;;;;6.00;3.93;;;;;;;;;;4990452;28;20453;-79
2023/06/21 13:55:22;;;;;;;6.30;4.87;;;;;;;;;;4988528;28;20505;-78
2023/06/21 13:57:53;;;;;;;5.73;3.87;;;;;;;;;;4982645;28;20675;-81
2023/06/21 14:00:22;;;;;;;6.43;4.03;;;;;;;;;;4983716;28;20469;-81
2023/06/21 14:02:51;;;;;;;6.20;4.20;;;;;;;;;;4979295;28;20477;-80
2023/06/21 14:05:21;;;;;;;5.80;4.40;;;;;;;;;;4987006;28;20497;-80
2023/06/21 14:07:51;;;;;;;4.67;3.53;;;;;;;;;;4987484;28;20464;-80
2023/06/21 14:12:45;;;;;;;6.63;5.00;;;;;;;;;;5005616;28;20434;-79
2023/06/21 14:27:54;;;;;;;5.13;4.13;;;;;;;;;;4980051;23;20672;-80
2023/06/21 14:30:22;;;;;;;5.53;3.30;;;;;;;;;;4985465;28;20620;-81
2023/06/21 14:32:49;;;;;;;5.37;3.53;;;;;;;;;;4981254;28;20454;-80
2023/06/21 14:35:20;;;;;;;5.97;3.80;;;;;;;;;;4972827;28;20497;-80
2023/06/21 14:37:49;;;;;;;6.60;3.70;;;;;;;;;;4983534;28;20465;-81
2023/06/21 14:40:18;;;;;;;6.33;4.00;;;;;;;;;;4991027;28;20532;-80
2023/06/21 14:42:46;;;;;;;5.73;3.70;;;;;;;;;;4989040;28;20577;-81
2023/06/21 14:45:24;;;;;;;5.20;3.30;;;;;;;;;;4987567;28;20485;-81
2023/06/21 14:47:54;;;;;;;6.10;4.13;;;;;;;;;;4980531;28;20469;-80
2023/06/21 14:50:21;;;;;;;4.50;3.77;;;;;;;;;;4985437;28;20613;-80
2023/06/21 14:52:50;;;;;;;6.03;4.40;;;;;;;;;;4982142;28;20461;-82
2023/06/21 14:55:17;;;;;;;8.50;3.93;;;;;;;;;;4982776;28;20457;-79
2023/06/21 14:57:45;;;;;;;4.80;3.97;;;;;;;;;;4984346;28;20459;-82
2023/06/21 15:00:13;;;;;;;4.90;3.33;;;;;;;;;;4986974;28;20503;-80
2023/06/21 15:02:44;;;;;;;4.67;3.83;;;;;;;;;;4987764;28;20506;-80
2023/06/21 15:05:12;;;;;;;5.03;3.70;;;;;;;;;;4989197;28;20442;-80
2023/06/21 15:07:40;;;;;;;5.87;4.80;;;;;;;;;;4971104;28;20569;-82
2023/06/21 15:15:52;;;;;;;6.77;3.90;;;;;;;;;;4943654;28;20486;-74
2023/06/21 15:29:32;;;;;;;4.80;3.27;;;;;;;;;;4557935;23;20237;-79
2023/06/21 15:31:59;;;;;;;5.27;3.53;;;;;;;;;;4988636;28;20532;-80
2023/06/21 15:34:28;;;;;;;5.33;3.10;;;;;;;;;;4987397;28;20517;-79
2023/06/21 15:36:56;;;;;;;6.10;3.53;;;;;;;;;;4983103;28;20488;-80
2023/06/21 15:39:24;;;;;;;4.50;2.80;;;;;;;;;;4992817;28;20437;-79
2023/06/21 15:41:52;;;;;;;4.27;2.83;;;;;;;;;;4996061;28;20531;-77
2023/06/21 15:44:22;;;;;;;4.70;2.60;;;;;;;;;;4997324;28;20500;-79
2023/06/21 15:46:52;;;;;;;4.13;2.60;;;;;;;;;;4996891;28;20461;-78
2023/06/21 15:49:20;;;;;;;5.00;3.43;;;;;;;;;;4985105;28;20564;-80
2023/06/21 15:51:48;;;;;;;6.40;4.63;;;;;;;;;;4990876;28;20468;-80
2023/06/21 15:54:15;;;;;;;6.13;3.60;;;;;;;;;;4994528;28;20810;-81
2023/06/21 15:56:44;;;;;;;5.30;3.30;;;;;;;;;;4994753;28;20488;-79
2023/06/21 15:59:13;;;;;;;8.50;3.50;;;;;;;;;;4988854;28;20461;-80
2023/06/21 16:01:40;;;;;;;4.10;3.30;;;;;;;;;;4986982;28;20516;-81
2023/06/21 16:04:09;;;;;;;4.80;3.70;;;;;;;;;;4983934;28;20470;-81
2023/06/21 16:06:37;;;;;;;6.17;3.90;;;;;;;;;;4984918;28;20484;-81
2023/06/21 16:14:19;;;;;;;4.80;3.30;;;;;;;;;;4997059;23;21043;-74
2023/06/21 16:16:48;;;;;;;5.40;3.10;;;;;;;;;;4976466;28;20257;-74
2023/06/21 16:19:25;;;;;;;7.23;3.53;;;;;;;;;;4973647;28;20520;-73
2023/06/21 16:21:53;;;;;;;4.50;3.30;;;;;;;;;;4975474;28;20445;-73
2023/06/21 16:24:26;;;;;;;4.40;3.27;;;;;;;;;;4975278;28;20489;-74
2023/06/21 16:29:30;;;;;;;6.83;3.07;;;;;;;;;;1475008;26;20767;-79
2023/06/21 16:31:57;;;;;;;7.00;3.80;;;;;;;;;;4962348;29;20450;-79
2023/06/21 16:34:27;;;;;;;7.10;4.80;;;;;;;;;;4961712;28;21134;-80
2023/06/21 16:36:59;;;;;;;5.50;3.30;;;;;;;;;;4963002;29;20451;-80
2023/06/21 16:39:30;;;;;;;7.10;4.80;;;;;;;;;;4971082;29;20469;-80
2023/06/21 16:42:00;;;;;;;4.80;3.30;;;;;;;;;;4972171;29;20462;-80
2023/06/21 16:44:27;;;;;;;4.20;2.90;;;;;;;;;;4965268;29;20486;-81
2023/06/21 16:46:57;;;;;;;5.27;3.00;;;;;;;;;;4972443;29;20469;-79
2023/06/21 16:49:27;;;;;;;6.57;3.07;;;;;;;;;;4971028;29;20518;-80
2023/06/21 16:51:55;;;;;;;4.53;2.70;;;;;;;;;;4967375;28;20459;-79
2023/06/21 16:54:25;;;;;;;4.90;3.20;;;;;;;;;;4968744;29;20468;-80
2023/06/21 16:56:54;;;;;;;12.03;3.30;;;;;;;;;;4967265;29;20462;-80
2023/06/21 16:59:37;;;;;;;4.00;2.40;;;;;;;;;;4974439;29;20525;-81
2023/06/21 17:02:06;;;;;;;4.73;2.60;;;;;;;;;;4975220;29;20466;-82
2023/06/21 17:04:36;;;;;;;4.53;2.60;;;;;;;;;;4966026;28;20486;-81
2023/06/21 17:07:03;;;;;;;4.40;2.80;;;;;;;;;;4970720;28;20451;-82
2023/06/21 17:09:31;;;;;;;5.47;3.00;;;;;;;;;;4965857;29;20500;-80
2023/06/21 17:11:59;;;;;;;4.80;2.93;;;;;;;;;;4964741;29;20467;-80
2023/06/21 17:20:07;;;;;;;5.07;2.57;;;;;;;;;;4784376;23;20482;-74
2023/06/21 17:22:44;;;;;;;4.23;2.13;;;;;;;;;;4985333;28;20464;-75
2023/06/21 17:25:13;;;;;;;4.30;2.53;;;;;;;;;;4996325;28;20480;-75
2023/06/21 17:27:42;;;;;;;7.10;4.10;;;;;;;;;;5019605;23;20488;-81
2023/06/21 17:30:15;;;;;;;5.27;2.43;;;;;;;;;;4990932;28;20500;-81
2023/06/21 17:32:44;;;;;;;5.03;2.67;;;;;;;;;;4973411;28;20683;-80
2023/06/21 17:35:14;;;;;;;3.77;2.03;;;;;;;;;;4968316;29;20461;-79
2023/06/21 17:37:43;;;;;;;4.17;2.83;;;;;;;;;;4987905;28;20465;-80
2023/06/21 17:40:11;;;;;;;5.93;3.30;;;;;;;;;;4983529;28;21127;-81
2023/06/21 17:42:39;;;;;;;4.00;2.30;;;;;;;;;;4980005;28;20499;-81
2023/06/21 17:45:12;;;;;;;4.40;2.43;;;;;;;;;;4982976;28;20502;-79
2023/06/21 17:47:40;;;;;;;3.83;2.30;;;;;;;;;;4976721;28;20449;-80
2023/06/21 17:50:12;;;;;;;5.43;2.73;;;;;;;;;;4986348;28;20461;-81
2023/06/21 17:52:50;;;;;;;5.17;3.37;;;;;;;;;;4990948;28;20520;-81
2023/06/21 17:55:36;;;;;;;4.23;2.57;;;;;;;;;;4981403;28;20517;-79
2023/06/21 17:58:05;;;;;;;5.87;3.03;;;;;;;;;;4974826;28;20461;-79
2023/06/21 18:00:38;;;;;;;4.47;2.60;;;;;;;;;;4978634;28;20789;-79
2023/06/21 18:03:14;;;;;;;4.33;3.03;;;;;;;;;;4988363;28;20465;-79
2023/06/21 18:05:44;;;;;;;5.03;2.57;;;;;;;;;;4984289;28;20489;-80
2023/06/21 18:08:12;;;;;;;4.50;2.97;;;;;;;;;;4985557;28;20504;-82
2023/06/21 18:10:40;;;;;;;5.40;2.87;;;;;;;;;;4989557;28;20465;-80
2023/06/21 18:13:11;;;;;;;6.70;2.57;;;;;;;;;;4974883;28;20472;-79
2023/06/21 18:15:42;;;;;;;3.90;3.17;;;;;;;;;;4969592;23;20493;-74
2023/06/21 18:18:10;;;;;;;3.00;2.10;;;;;;;;;;4971244;28;20472;-75
2023/06/21 18:20:40;;;;;;;4.50;2.47;;;;;;;;;;4966863;28;20454;-73
2023/06/21 18:23:11;;;;;;;3.20;2.40;;;;;;;;;;4967755;28;20453;-75
2023/06/21 18:25:44;;;;;;;3.40;2.40;;;;;;;;;;4952926;28;20493;-72
2023/06/21 18:28:12;;;;;;;3.50;2.27;;;;;;;;;;4984953;23;20555;-82
2023/06/21 18:30:39;;;;;;;3.80;2.30;;;;;;;;;;4985895;28;20465;-81
2023/06/21 18:33:07;;;;;;;3.67;2.23;;;;;;;;;;4980314;28;20461;-82
2023/06/21 18:35:39;;;;;;;5.00;2.77;;;;;;;;;;4977444;28;20614;-83